Station Historical Data
Daily Summary for April 13, 2017 Units:  Metric    English   Both
« Previous Day
Next Day »
Daily Weekly Monthly Yearly Custom
  High: Low: Average:
Temperature: 29 °C 13.2 °C 20.5 °C
Dew Point: 15.1 °C 10.1 °C 12.4 °C
Humidity: 92% 35% 64%
Wind Speed: 1.6km/h 0km/h 0.2km/h
Wind Gust: 8km/h - -
Wind- - West
Pressure: 1026 hPa 1021.6 hPa -
Precipitation: 0 mm    
Historical Graphs
 
 
Tabular Data for April 13, 2017
Time Temperature Dew Point Pressure Wind Wind Speed Wind Gust Humidity Rainfall Rate (Hourly) solar Conditions
00:00 16.2 °C 12.6 °C 1023.9 hPa Calm     79% 0 mm WeatherDisplay:10.37 W/m2 CLR
00:15 15.9 °C 12.5 °C 1024.3 hPa Calm     80% 0 mm WeatherDisplay:10.37 W/m2 CLR
00:30 15.8 °C 12.4 °C 1024.3 hPa Calm     80% 0 mm WeatherDisplay:10.37 W/m2 CLR
00:45 15.7 °C 12.3 °C 1023.9 hPa Calm     80% 0 mm WeatherDisplay:10.37 W/m2 CLR
01:00 15.6 °C 12.3 °C 1023.9 hPa Calm     81% 0 mm WeatherDisplay:10.37 W/m2 CLR
01:15 15.6 °C 12.7 °C 1023.9 hPa Calm     83% 0 mm WeatherDisplay:10.37 W/m2 CLR
01:30 15.7 °C 12.7 °C 1023.9 hPa Calm     82% 0 mm WeatherDisplay:10.37 W/m2 CLR
01:45 15.4 °C 12.3 °C 1023.9 hPa Calm     82% 0 mm WeatherDisplay:10.37 W/m2 CLR
02:00 15.2 °C 12.3 °C 1023.9 hPa Calm     83% 0 mm WeatherDisplay:10.37 W/m2 CLR
02:15 15.1 °C 12.6 °C 1023.9 hPa Calm     85% 0 mm WeatherDisplay:10.37 W/m2 CLR
02:30 14.9 °C 12.4 °C 1023.6 hPa Calm     85% 0 mm WeatherDisplay:10.37 W/m2 CLR
02:45 14.8 °C 12.5 °C 1023.6 hPa Calm     86% 0 mm WeatherDisplay:10.37 W/m2 CLR
03:00 15.1 °C 12.9 °C 1023.6 hPa Calm     87% 0 mm WeatherDisplay:10.37 W/m2 CLR
03:15 14.8 °C 12.6 °C 1023.6 hPa Calm     86% 0 mm WeatherDisplay:10.37 W/m2 CLR
03:30 14.6 °C 12.3 °C 1023.6 hPa Calm     86% 0 mm WeatherDisplay:10.37 W/m2 CLR
03:45 14.3 °C 12.1 °C 1023.6 hPa Calm     87% 0 mm WeatherDisplay:10.37 W/m2 CLR
04:00 14.1 °C 12 °C 1023.6 hPa Calm     87% 0 mm WeatherDisplay:10.37 W/m2 CLR
04:15 14.1 °C 12 °C 1023.2 hPa Calm     87% 0 mm WeatherDisplay:10.37 W/m2 CLR
04:30 14.1 °C 12 °C 1023.2 hPa Calm     87% 0 mm WeatherDisplay:10.37 W/m2 CLR
04:45 14.1 °C 12 °C 1023.2 hPa Calm     87% 0 mm WeatherDisplay:10.37 W/m2 CLR
05:00 14.1 °C 12 °C 1023.6 hPa Calm     87% 0 mm WeatherDisplay:10.37 W/m2 CLR
05:15 14.1 °C 12 °C 1023.6 hPa Calm     87% 0 mm WeatherDisplay:10.37 W/m2 CLR
05:30 14.1 °C 12 °C 1023.6 hPa Calm     87% 0 mm WeatherDisplay:10.37 W/m2 CLR
05:45 14.1 °C 12 °C 1023.6 hPa Calm     87% 0 mm WeatherDisplay:10.37 W/m2 CLR
06:00 14.1 °C 12 °C 1023.6 hPa Calm     87% 0 mm WeatherDisplay:10.37 W/m2 CLR
06:15 14.1 °C 12 °C 1023.9 hPa Calm     87% 0 mm WeatherDisplay:10.37 W/m2 CLR
06:30 14.1 °C 12 °C 1024.3 hPa Calm     87% 0 mm WeatherDisplay:10.37 W/m2 CLR
06:45 14.1 °C 12 °C 1024.3 hPa Calm     87% 0 mm WeatherDisplay:10.37 W/m2 CLR
07:00 14.1 °C 12 °C 1024.6 hPa Calm     87% 0 mm WeatherDisplay:10.37 W/m2 CLR
07:15 14.1 °C 12 °C 1024.6 hPa Calm     87% 0 mm WeatherDisplay:10.37 W/m2 CLR
07:30 14.1 °C 12 °C 1024.9 hPa Calm     87% 0 mm WeatherDisplay:10.37 W/m2 CLR
07:45 14.1 °C 12 °C 1024.9 hPa Calm     87% 0 mm WeatherDisplay:10.37 W/m2 CLR
08:00 13.2 °C 11.9 °C 1024.9 hPa Calm     92% 0 mm WeatherDisplay:10.37 W/m2 CLR
08:15 13.9 °C 12.6 °C 1025.3 hPa Calm     92% 0 mm WeatherDisplay:10.37 W/m2 CLR
08:30 14.6 °C 13.1 °C 1025.3 hPa Calm     91% 0 mm WeatherDisplay:10.37 W/m2 CLR
08:45 15.6 °C 13.6 °C 1025.3 hPa Calm     88% 0 mm WeatherDisplay:10.37 W/m2 CLR
09:00 16.8 °C 13.7 °C 1025.3 hPa Calm   1.6 km/h 82% 0 mm WeatherDisplay:10.37 W/m2 CLR
09:15 18.1 °C 13.6 °C 1025.3 hPa Calm   1.6 km/h 75% 0 mm WeatherDisplay:10.37 W/m2 CLR
09:30 18.8 °C 14.1 °C 1025.3 hPa Calm   3.2 km/h 74% 0 mm WeatherDisplay:10.37 W/m2 CLR
09:45 20 °C 14.3 °C 1025.3 hPa Calm   3.2 km/h 70% 0 mm WeatherDisplay:10.37 W/m2 CLR
10:00 20.9 °C 14.1 °C 1025.6 hPa Calm   3.2 km/h 65% 0 mm WeatherDisplay:10.37 W/m2 CLR
10:15 22 °C 14.4 °C 1025.6 hPa Calm   3.2 km/h 62% 0 mm WeatherDisplay:10.37 W/m2 CLR
10:30 22.3 °C 14.4 °C 1025.6 hPa Calm   1.6 km/h 61% 0 mm WeatherDisplay:10.37 W/m2 CLR
10:45 23.1 °C 14.6 °C 1026 hPa Calm   1.6 km/h 59% 0 mm WeatherDisplay:10.37 W/m2 CLR
11:00 23.9 °C 13.7 °C 1026 hPa Calm   3.2 km/h 53% 0 mm WeatherDisplay:10.37 W/m2 CLR
11:15 24.7 °C 14.7 °C 1026 hPa Calm   1.6 km/h 54% 0 mm WeatherDisplay:10.37 W/m2 CLR
11:30 25.4 °C 13.6 °C 1025.6 hPa Calm   3.2 km/h 48% 0 mm WeatherDisplay:10.37 W/m2 CLR
11:45 26 °C 15.1 °C 1025.6 hPa Calm   4.8 km/h 51% 0 mm WeatherDisplay:10.37 W/m2 CLR
12:00 26.6 °C 14 °C 1025.6 hPa SSE 1.6 km/h 3.2 km/h 46% 0 mm WeatherDisplay:10.37 W/m2 CLR
12:15 26.7 °C 13.8 °C 1025.6 hPa West 1.6 km/h 3.2 km/h 45% 0 mm WeatherDisplay:10.37 W/m2 CLR
12:30 27.3 °C 13.6 °C 1025.3 hPa Calm   4.8 km/h 43% 0 mm WeatherDisplay:10.37 W/m2 CLR
12:45 27.4 °C 13.3 °C 1024.9 hPa Calm   8 km/h 42% 0 mm WeatherDisplay:10.37 W/m2 CLR
13:00 27.7 °C 13.6 °C 1024.9 hPa WNW 1.6 km/h 3.2 km/h 42% 0 mm WeatherDisplay:10.37 W/m2 CLR
13:15 28.1 °C 13.2 °C 1024.6 hPa Calm   3.2 km/h 40% 0 mm WeatherDisplay:10.37 W/m2 CLR
13:30 28.7 °C 14.1 °C 1024.6 hPa Calm   4.8 km/h 41% 0 mm WeatherDisplay:10.37 W/m2 CLR
13:45 27.9 °C 12.3 °C 1024.6 hPa Calm   4.8 km/h 38% 0 mm WeatherDisplay:10.37 W/m2 CLR
14:00 28.4 °C 12.7 °C 1024.3 hPa West 1.6 km/h 8 km/h 38% 0 mm WeatherDisplay:10.37 W/m2 CLR
14:15 29 °C 12.8 °C 1024.3 hPa Calm   4.8 km/h 37% 0 mm WeatherDisplay:10.37 W/m2 CLR
14:30 28.8 °C 11.8 °C 1023.9 hPa NW 1.6 km/h 8 km/h 35% 0 mm WeatherDisplay:10.37 W/m2 CLR
14:45 28.2 °C 11.7 °C 1023.9 hPa WNW 1.6 km/h 3.2 km/h 36% 0 mm WeatherDisplay:10.37 W/m2 CLR
15:00 27.2 °C 11.6 °C 1023.6 hPa Calm   3.2 km/h 38% 0 mm WeatherDisplay:10.37 W/m2 CLR
15:15 26.7 °C 12.4 °C 1023.2 hPa Calm   3.2 km/h 41% 0 mm WeatherDisplay:10.37 W/m2 CLR
15:30 27.1 °C 10.8 °C 1022.9 hPa Calm   3.2 km/h 36% 0 mm WeatherDisplay:10.37 W/m2 CLR
15:45 26.8 °C 10.5 °C 1022.9 hPa Calm   3.2 km/h 36% 0 mm WeatherDisplay:10.37 W/m2 CLR
16:00 27.3 °C 11.7 °C 1022.6 hPa Calm   3.2 km/h 38% 0 mm WeatherDisplay:10.37 W/m2 CLR
16:15 26.9 °C 10.6 °C 1022.2 hPa Calm   4.8 km/h 36% 0 mm WeatherDisplay:10.37 W/m2 CLR
16:30 26.6 °C 10.3 °C 1022.2 hPa Calm   3.2 km/h 36% 0 mm WeatherDisplay:10.37 W/m2 CLR
16:45 26.5 °C 11.1 °C 1021.9 hPa Calm   3.2 km/h 38% 0 mm WeatherDisplay:10.37 W/m2 CLR
17:00 26.1 °C 11.1 °C 1021.9 hPa Calm     39% 0 mm WeatherDisplay:10.37 W/m2 CLR
17:15 26.4 °C 10.1 °C 1021.9 hPa Calm   1.6 km/h 36% 0 mm WeatherDisplay:10.37 W/m2 CLR
17:30 26.3 °C 10.5 °C 1021.9 hPa Calm   1.6 km/h 37% 0 mm WeatherDisplay:10.37 W/m2 CLR
17:45 25.7 °C 11.5 °C 1021.9 hPa Calm     41% 0 mm WeatherDisplay:10.37 W/m2 CLR
18:00 25.5 °C 11.3 °C 1021.9 hPa Calm     41% 0 mm WeatherDisplay:10.37 W/m2 CLR
18:15 25.6 °C 11 °C 1021.9 hPa Calm     40% 0 mm WeatherDisplay:10.37 W/m2 CLR
18:30 25.6 °C 10.9 °C 1021.9 hPa Calm     40% 0 mm WeatherDisplay:10.37 W/m2 CLR
18:45 25.4 °C 11.9 °C 1021.6 hPa Calm     43% 0 mm WeatherDisplay:10.37 W/m2 CLR
19:00 24.9 °C 11.8 °C 1021.9 hPa Calm     44% 0 mm WeatherDisplay:10.37 W/m2 CLR
19:15 24.6 °C 11.6 °C 1021.9 hPa Calm     44% 0 mm WeatherDisplay:10.37 W/m2 CLR
19:30 24.3 °C 11.6 °C 1021.9 hPa Calm     45% 0 mm WeatherDisplay:10.37 W/m2 CLR
19:45 23.8 °C 11.5 °C 1021.9 hPa Calm     46% 0 mm WeatherDisplay:10.37 W/m2 CLR
20:00 23.3 °C 11.7 °C 1021.9 hPa Calm     48% 0 mm WeatherDisplay:10.37 W/m2 CLR
20:15 22.7 °C 11.4 °C 1022.2 hPa Calm     49% 0 mm WeatherDisplay:10.37 W/m2 CLR
20:30 22.1 °C 12.1 °C 1022.2 hPa Calm     53% 0 mm WeatherDisplay:10.37 W/m2 CLR
20:45 21.6 °C 12.1 °C 1022.2 hPa Calm     55% 0 mm WeatherDisplay:10.37 W/m2 CLR
21:00 21.1 °C 12.5 °C 1022.6 hPa Calm     58% 0 mm WeatherDisplay:10.37 W/m2 CLR
21:15 20.7 °C 12.2 °C 1022.6 hPa Calm     58% 0 mm WeatherDisplay:10.37 W/m2 CLR
21:30 20.3 °C 12.6 °C 1022.9 hPa Calm     61% 0 mm WeatherDisplay:10.37 W/m2 CLR
21:45 20.1 °C 12.3 °C 1022.9 hPa Calm     61% 0 mm WeatherDisplay:10.37 W/m2 CLR
22:00 20 °C 13 °C 1023.2 hPa Calm     64% 0 mm WeatherDisplay:10.37 W/m2 CLR
22:15 19.8 °C 12.6 °C 1023.2 hPa Calm     63% 0 mm WeatherDisplay:10.37 W/m2 CLR
22:30 19.7 °C 12.9 °C 1023.2 hPa Calm     65% 0 mm WeatherDisplay:10.37 W/m2 CLR
22:45 19.4 °C 12.6 °C 1023.2 hPa Calm     65% 0 mm WeatherDisplay:10.37 W/m2 CLR
23:00 19 °C 12.7 °C 1023.6 hPa Calm     67% 0 mm WeatherDisplay:10.37 W/m2 CLR
23:15 18.7 °C 12.4 °C 1023.6 hPa Calm     67% 0 mm WeatherDisplay:10.37 W/m2 CLR
23:30 18.4 °C 12.8 °C 1023.6 hPa Calm     70% 0 mm WeatherDisplay:10.37 W/m2 CLR
23:45 18.1 °C 12.8 °C 1023.6 hPa Calm     71% 0 mm WeatherDisplay:10.37 W/m2 CLR
Piedmont Bend
Compliments of Weather Underground - 4 mb